Tropical Cyclones
[Index]
Main Index Home Page Stock Weather Photos Extreme Storms Discussion Storm News and Storm Chasing Reports Tropical Cyclones / Hurricanes / Typhoons Weather Data and Links Wild Fires / Bushfires Weather Observation Techniques Weather Picture Catalogue Tornado Pictures and Reports Stock Video Footage and DVDs for sale
Season 1958-1959 Tropical Cyclone 195859_01 Track Map
Season 1958-1959 Summaries: [BoM-AU] [JTWC-AU] [JTWC-SIO] [JTWC-SPAC] [JTWC-SH]
<<- Previous TC | BoM 1958-1959 Season | Next TC ->>

click for intensity scale information  Lat/long Grid: Show Hide

 Date Labels: Show Hide

Bureau of Meteorology Tropical Cyclone Data

Name: 195859_01
Number: 311 / 195859_01

17 Nov 1958 01:00 UTC to 22 Nov 1958 22:00 UTC

    date/time    lat    long    hPa   cat  kts
1958-11-17 01    9.0    99.0   1004                     
1958-11-17 04    9.1    98.8   1002                     
1958-11-17 07    9.3    98.6   1000                     
1958-11-17 10    9.4    98.4   1000                     
1958-11-17 22   10.2    97.7    995    1                
1958-11-18 01   10.5    97.5    995    1                
1958-11-18 04   10.7    97.3    994    1                
1958-11-18 07   10.8    97.1    992    1                
1958-11-18 10   10.9    96.9    994    1                
1958-11-18 16   11.2    96.6    996                     
1958-11-18 19   11.5    96.4    997                     
1958-11-18 22   11.8    96.2    998                     
1958-11-19 01   12.0    96.0    999                     
1958-11-19 04   12.5    95.4   1000                     
1958-11-19 07   13.0    94.8   1001                     
1958-11-19 10   13.5    94.2   1001                     
1958-11-19 16   14.5    93.0   1001                     
1958-11-19 19   15.0    92.4   1001                     
1958-11-19 22   15.5    91.7   1001                     
1958-11-20 01   16.0    91.0   1002                     
1958-11-20 04   16.2    90.9   1002                     
1958-11-20 07   16.5    90.7   1003                     
1958-11-20 10   16.7    90.6   1003                     
1958-11-20 16   17.2    90.4   1004                     
1958-11-21 04   18.2    90.1   1004                     
1958-11-21 10   18.7    90.5   1004                     
1958-11-21 16   19.0    90.9   1004                     
1958-11-22 04   20.2    91.6   1006                     
1958-11-22 10   20.7    92.0   1008                     
1958-11-22 22   21.7    92.8   1014                     
Winds are 10-min average.

Tropical cyclone tracks developed by Michael Bath using data from the Bureau of Meteorology and Google Maps.


[Australian Severe Weather index] [Copyright Notice] [Email Contacts] [Search This Site] [Privacy Policy]
Document: tropical_cyclone_195859_01.htm Updated: 30 May 2013